createdAt,value
2023-10-28T00:03:03.370Z,76.24
2023-10-28T00:08:05.065Z,76.11
2023-10-28T00:13:08.137Z,76.25
2023-10-28T00:18:10.111Z,76.26
2023-10-28T00:23:13.048Z,76.27
2023-10-28T00:28:14.743Z,76.34
2023-10-28T00:33:16.880Z,76.20
2023-10-28T00:38:18.489Z,76.04
2023-10-28T00:43:23.621Z,76.56
2023-10-28T00:48:25.112Z,76.57
2023-10-28T00:53:27.575Z,76.60
2023-10-28T00:58:29.100Z,76.29
2023-10-28T01:03:31.849Z,76.40
2023-10-28T01:08:33.486Z,76.36
2023-10-28T01:13:34.958Z,76.35
2023-10-28T01:18:36.482Z,76.59
2023-10-28T01:23:38.072Z,76.73
2023-10-28T01:28:39.725Z,76.69
2023-10-28T01:33:41.138Z,76.75
2023-10-28T01:38:44.118Z,76.62
2023-10-28T01:43:47.239Z,76.77
2023-10-28T01:48:48.717Z,76.71
2023-10-28T01:53:50.637Z,77.29
2023-10-28T01:58:52.047Z,77.34
2023-10-28T02:03:54.337Z,77.42
2023-10-28T02:08:55.754Z,77.48
2023-10-28T02:13:57.173Z,77.61
2023-10-28T02:18:58.547Z,78.43
2023-10-28T02:24:01.587Z,78.64
2023-10-28T02:29:03.261Z,78.49
2023-10-28T02:34:08.176Z,78.79
2023-10-28T02:39:11.073Z,79.11
2023-10-28T02:44:12.522Z,78.64
2023-10-28T02:49:13.888Z,78.60
2023-10-28T02:54:15.473Z,78.70
2023-10-28T02:59:16.913Z,78.31
2023-10-28T03:04:19.258Z,78.61
2023-10-28T03:09:20.663Z,78.31
2023-10-28T03:14:23.398Z,78.13
2023-10-28T03:19:24.854Z,77.96
2023-10-28T03:24:26.275Z,77.78
2023-10-28T03:29:27.677Z,77.47
2023-10-28T03:34:29.085Z,77.01
2023-10-28T03:39:30.535Z,76.54
2023-10-28T03:44:33.005Z,76.48
2023-10-28T03:49:34.709Z,76.24
2023-10-28T03:54:36.133Z,75.94
2023-10-28T03:59:37.642Z,76.08
2023-10-28T04:04:39.071Z,75.92
2023-10-28T04:09:40.498Z,75.48
2023-10-28T04:14:41.978Z,75.51
2023-10-28T04:19:43.368Z,75.56
2023-10-28T04:24:44.837Z,75.39
2023-10-28T04:29:46.741Z,74.71
2023-10-28T04:34:56.537Z,74.76
2023-10-28T04:40:04.750Z,74.77
2023-10-28T04:45:07.369Z,74.30
2023-10-28T04:50:09.144Z,74.30
2023-10-28T04:55:13.728Z,74.50
2023-10-28T05:00:17.848Z,74.39
2023-10-28T05:05:19.459Z,74.45
2023-10-28T05:10:20.966Z,74.38
2023-10-28T05:15:22.338Z,74.17
2023-10-28T05:20:23.730Z,73.95
2023-10-28T05:25:25.137Z,73.91
2023-10-28T05:30:26.784Z,73.85
2023-10-28T05:35:28.157Z,74.20
2023-10-28T05:40:29.547Z,73.88
2023-10-28T05:45:30.997Z,73.89
2023-10-28T05:50:32.401Z,73.97
2023-10-28T05:55:33.847Z,74.32
2023-10-28T06:00:35.301Z,74.79
2023-10-28T06:05:36.904Z,74.90
2023-10-28T06:10:38.363Z,75.01
2023-10-28T06:15:39.994Z,74.78
2023-10-28T06:20:41.519Z,75.58
2023-10-28T06:25:42.964Z,75.54
2023-10-28T06:30:51.682Z,75.69
2023-10-28T06:35:53.299Z,75.46
2023-10-28T06:40:55.217Z,75.67
2023-10-28T06:45:56.673Z,75.56
2023-10-28T06:50:58.093Z,75.61
2023-10-28T06:56:03.650Z,75.92
2023-10-28T07:01:05.527Z,75.76
2023-10-28T07:06:10.239Z,76.08
2023-10-28T07:11:14.581Z,76.03
2023-10-28T07:16:21.796Z,75.99
2023-10-28T07:21:23.270Z,76.13
2023-10-28T07:26:27.443Z,76.09
2023-10-28T07:31:28.883Z,76.10
2023-10-28T07:36:30.314Z,76.16
2023-10-28T07:41:32.034Z,75.97
2023-10-28T07:46:34.503Z,76.05
2023-10-28T07:51:36.439Z,75.82
2023-10-28T07:56:37.907Z,75.80
2023-10-28T08:01:42.428Z,75.79
2023-10-28T08:06:43.881Z,75.88
2023-10-28T08:11:45.294Z,75.73
2023-10-28T08:16:46.819Z,75.50
2023-10-28T08:21:48.322Z,75.30
2023-10-28T08:26:50.291Z,75.08
2023-10-28T08:31:52.143Z,75.17
2023-10-28T08:36:53.964Z,75.69
2023-10-28T08:41:55.344Z,76.00
2023-10-28T08:46:57.463Z,75.82
2023-10-28T08:52:03.124Z,76.04
2023-10-28T08:57:04.899Z,75.76
2023-10-28T09:02:11.071Z,75.96
2023-10-28T09:07:12.651Z,75.71
2023-10-28T09:12:14.055Z,75.56
2023-10-28T09:17:21.445Z,75.22
2023-10-28T09:22:24.350Z,75.03
2023-10-28T09:27:25.766Z,74.84
2023-10-28T09:32:27.810Z,74.79
2023-10-28T09:37:29.355Z,74.87
2023-10-28T09:42:38.557Z,74.68
2023-10-28T09:47:57.861Z,74.47
2023-10-28T09:52:59.906Z,74.23
2023-10-28T09:58:14.458Z,73.83
2023-10-28T10:03:45.956Z,74.14
2023-10-28T10:08:49.157Z,73.67
2023-10-28T10:13:51.023Z,73.15
2023-10-28T10:18:55.675Z,73.14
2023-10-28T10:24:05.263Z,73.12
2023-10-28T10:29:06.974Z,72.75
2023-10-28T10:34:09.464Z,72.60
2023-10-28T10:39:12.711Z,72.57
2023-10-28T10:44:34.548Z,72.56
2023-10-28T10:49:37.715Z,72.47
2023-10-28T10:54:40.560Z,71.74
2023-10-28T10:59:42.179Z,71.45
2023-10-28T11:04:44.168Z,71.29
2023-10-28T11:09:45.799Z,70.85
2023-10-28T11:14:48.746Z,70.54
2023-10-28T11:19:53.521Z,70.19
2023-10-28T11:24:58.607Z,69.76
2023-10-28T11:30:00.176Z,69.38
2023-10-28T11:35:01.752Z,69.24
2023-10-28T11:40:05.759Z,68.40
2023-10-28T11:45:08.912Z,67.93
2023-10-28T11:50:10.523Z,67.49
2023-10-28T11:55:11.921Z,67.23
2023-10-28T12:00:15.486Z,67.16
2023-10-28T12:05:16.950Z,66.71
2023-10-28T12:10:18.358Z,66.48
2023-10-28T12:15:19.804Z,66.27
2023-10-28T12:20:21.400Z,66.46
2023-10-28T12:25:22.904Z,65.95
2023-10-28T12:30:24.747Z,65.94
2023-10-28T12:35:26.188Z,65.83
2023-10-28T12:40:28.116Z,65.60
2023-10-28T12:45:30.406Z,65.81
2023-10-28T12:50:32.313Z,65.56
2023-10-28T12:55:33.726Z,65.50
2023-10-28T13:00:35.136Z,65.30
2023-10-28T13:05:36.812Z,65.29
2023-10-28T13:10:38.418Z,65.50
2023-10-28T13:15:41.162Z,65.63
2023-10-28T13:20:42.567Z,65.96
2023-10-28T13:25:44.017Z,66.95
2023-10-28T13:30:45.426Z,67.33
2023-10-28T13:35:46.810Z,68.39
2023-10-28T13:40:48.841Z,68.83
2023-10-28T13:45:50.220Z,69.53
2023-10-28T13:50:51.681Z,70.04
2023-10-28T13:55:59.874Z,71.01
2023-10-28T14:01:08.775Z,72.13
2023-10-28T14:06:12.381Z,72.18
2023-10-28T14:11:14.430Z,72.62
2023-10-28T14:16:18.121Z,72.81
2023-10-28T14:21:25.644Z,73.10
2023-10-28T14:26:27.061Z,73.15
2023-10-28T14:31:28.612Z,73.08
2023-10-28T14:36:30.341Z,73.36
2023-10-28T14:41:35.098Z,73.45
2023-10-28T14:46:36.868Z,73.17
2023-10-28T14:51:38.761Z,73.43
2023-10-28T14:56:40.253Z,73.81
2023-10-28T15:01:41.721Z,73.72
2023-10-28T15:06:43.142Z,73.85
2023-10-28T15:11:44.564Z,73.75
2023-10-28T15:16:49.565Z,73.58
2023-10-28T15:21:51.162Z,73.64
2023-10-28T15:26:52.552Z,73.71
2023-10-28T15:31:54.211Z,73.59
2023-10-28T15:36:55.636Z,73.54
2023-10-28T15:41:57.013Z,73.62
2023-10-28T15:46:59.161Z,73.79
2023-10-28T15:52:00.799Z,73.65
2023-10-28T15:57:02.264Z,73.70
2023-10-28T16:02:04.108Z,73.56
2023-10-28T16:07:06.549Z,73.41
2023-10-28T16:12:08.965Z,73.23
2023-10-28T16:17:10.504Z,73.45
2023-10-28T16:22:12.079Z,73.56
2023-10-28T16:27:14.922Z,73.75
2023-10-28T16:32:16.395Z,73.57
2023-10-28T16:37:19.382Z,73.82
2023-10-28T16:42:20.864Z,73.77
2023-10-28T16:47:23.387Z,73.70
2023-10-28T16:52:25.042Z,73.60
2023-10-28T16:57:26.405Z,73.55
2023-10-28T17:02:27.840Z,73.55
2023-10-28T17:07:29.273Z,73.39
2023-10-28T17:12:30.683Z,73.37
2023-10-28T17:17:32.286Z,73.52
2023-10-28T17:22:34.702Z,73.33
2023-10-28T17:27:36.115Z,73.40
2023-10-28T17:32:37.616Z,73.29
2023-10-28T17:37:39.848Z,73.29
2023-10-28T17:42:41.257Z,73.52
2023-10-28T17:47:42.802Z,73.65
2023-10-28T17:52:44.536Z,73.58
2023-10-28T17:57:48.079Z,73.62
2023-10-28T18:02:49.554Z,73.53
2023-10-28T18:07:51.068Z,73.67
2023-10-28T18:12:53.618Z,73.28
2023-10-28T18:17:55.141Z,73.39
2023-10-28T18:22:56.726Z,73.36
2023-10-28T18:27:58.601Z,73.47
2023-10-28T18:33:02.735Z,73.20
2023-10-28T18:38:04.235Z,73.13
2023-10-28T18:43:05.632Z,73.19
2023-10-28T18:48:07.855Z,73.16
2023-10-28T18:53:09.378Z,72.98
2023-10-28T18:58:10.745Z,73.36
2023-10-28T19:03:14.709Z,73.57
2023-10-28T19:08:16.380Z,73.36
2023-10-28T19:13:17.814Z,73.44
2023-10-28T19:18:19.311Z,73.42
2023-10-28T19:23:20.806Z,73.64
2023-10-28T19:28:22.228Z,73.94
2023-10-28T19:33:25.261Z,74.15
2023-10-28T19:38:26.955Z,74.27
2023-10-28T19:43:28.487Z,74.17
2023-10-28T19:48:29.854Z,74.36
2023-10-28T19:53:31.669Z,74.14
2023-10-28T19:58:33.363Z,74.03
2023-10-28T20:03:35.366Z,74.02
2023-10-28T20:08:37.790Z,74.26
2023-10-28T20:13:39.346Z,74.24
2023-10-28T20:18:40.825Z,74.50
2023-10-28T20:23:42.357Z,74.53
2023-10-28T20:28:45.167Z,74.78
2023-10-28T20:33:46.674Z,74.80
2023-10-28T20:38:48.675Z,74.58
2023-10-28T20:43:51.589Z,74.85
2023-10-28T20:48:54.593Z,74.78
2023-10-28T20:53:55.976Z,74.68
2023-10-28T20:58:57.357Z,74.98
2023-10-28T21:03:58.953Z,75.03
2023-10-28T21:09:00.698Z,74.91
2023-10-28T21:14:03.085Z,74.92
2023-10-28T21:19:04.864Z,74.90
2023-10-28T21:24:06.716Z,75.05
2023-10-28T21:29:08.102Z,75.25
2023-10-28T21:34:09.562Z,75.46
2023-10-28T21:39:10.922Z,76.06
2023-10-28T21:44:12.296Z,76.27
2023-10-28T21:49:14.042Z,76.38
2023-10-28T21:54:15.458Z,76.77
2023-10-28T21:59:16.847Z,76.86
2023-10-28T22:04:19.031Z,77.02
2023-10-28T22:09:20.625Z,76.99
2023-10-28T22:14:22.115Z,77.34
2023-10-28T22:19:23.907Z,77.28
2023-10-28T22:24:25.308Z,77.22
2023-10-28T22:29:26.813Z,77.33
2023-10-28T22:34:28.241Z,77.64
2023-10-28T22:39:29.681Z,77.80
2023-10-28T22:44:31.070Z,77.79
2023-10-28T22:49:32.452Z,77.92
2023-10-28T22:54:36.766Z,77.87
2023-10-28T22:59:38.455Z,78.01
2023-10-28T23:04:39.853Z,77.81
2023-10-28T23:09:42.057Z,77.66
2023-10-28T23:14:43.723Z,77.84
2023-10-28T23:19:45.185Z,77.89
2023-10-28T23:24:46.872Z,78.08
2023-10-28T23:29:48.492Z,78.27
2023-10-28T23:34:50.040Z,78.05
2023-10-28T23:39:51.405Z,77.93
2023-10-28T23:44:52.844Z,78.25
2023-10-28T23:49:54.332Z,78.52
2023-10-28T23:54:55.864Z,78.78
2023-10-28T23:59:57.658Z,78.62
